Time;durP1;ratioP1;P1;durP2;ratioP2;P2;SDS_P1;SDS_P2;PMS_P1;PMS_P2;Temp;Humidity;BMP_temperature;BMP_pressure;BME280_temperature;BME280_humidity;BME280_pressure;Samples;Min_cycle;Max_cycle;Signal;HPM_P1;HPM_P2
2022/05/07 00:02:07;;;;;;;21.50;19.57;;;14.60;99.90;;;;;;5001581;28;20541;-74
2022/05/07 00:04:37;;;;;;;19.40;17.70;;;14.60;99.90;;;;;;5010988;28;20670;-66
2022/05/07 00:07:07;;;;;;;20.20;18.30;;;14.60;99.90;;;;;;5025753;28;20520;-69
2022/05/07 00:09:34;;;;;;;20.23;18.23;;;14.60;99.90;;;;;;5012100;28;20434;-66
2022/05/07 00:11:59;;;;;;;20.27;18.37;;;14.50;99.90;;;;;;5013033;28;20426;-66
2022/05/07 00:14:26;;;;;;;20.90;18.90;;;14.50;99.90;;;;;;5010990;28;20422;-66
2022/05/07 00:19:36;;;;;;;21.20;19.10;;;14.50;99.90;;;;;;5012179;28;20448;-66
2022/05/07 00:22:03;;;;;;;19.73;17.93;;;14.50;99.90;;;;;;5011867;28;20473;-66
2022/05/07 00:24:29;;;;;;;21.27;19.17;;;14.40;99.90;;;;;;5011085;28;21094;-66
2022/05/07 00:26:54;;;;;;;21.83;19.77;;;14.40;99.90;;;;;;5012852;28;20506;-66
2022/05/07 00:29:20;;;;;;;20.40;18.50;;;14.40;99.90;;;;;;5011653;28;20206;-67
2022/05/07 00:31:46;;;;;;;19.77;17.97;;;14.40;99.90;;;;;;5011301;28;20273;-66
2022/05/07 00:34:11;;;;;;;20.87;18.83;;;14.40;99.90;;;;;;5010778;28;20179;-67
2022/05/07 00:36:37;;;;;;;20.00;18.03;;;14.30;99.90;;;;;;5012060;28;20191;-66
2022/05/07 00:39:04;;;;;;;19.23;17.33;;;14.30;99.90;;;;;;5009457;28;20191;-70
2022/05/07 00:41:29;;;;;;;21.57;19.47;;;14.30;99.90;;;;;;5010566;28;20179;-66
2022/05/07 00:43:55;;;;;;;20.30;18.40;;;14.30;99.90;;;;;;5010176;28;20445;-67
2022/05/07 00:46:24;;;;;;;19.33;17.63;;;14.20;99.90;;;;;;5010321;28;20198;-66
2022/05/07 00:48:50;;;;;;;19.30;17.40;;;14.20;99.90;;;;;;5011777;28;20226;-67
2022/05/07 00:51:34;;;;;;;20.10;18.10;;;14.20;99.90;;;;;;5010965;28;20499;-67
2022/05/07 00:54:02;;;;;;;19.53;17.57;;;14.20;99.90;;;;;;5011047;28;20433;-67
2022/05/07 00:56:28;;;;;;;19.00;17.30;;;14.20;99.90;;;;;;5009437;28;21162;-66
2022/05/07 00:58:55;;;;;;;19.23;17.30;;;14.10;99.90;;;;;;5011064;28;20524;-66
2022/05/07 01:01:21;;;;;;;17.73;16.10;;;14.10;99.90;;;;;;5010317;28;20542;-71
2022/05/07 01:03:47;;;;;;;18.17;16.53;;;14.10;99.90;;;;;;5011257;28;20517;-66
2022/05/07 01:06:13;;;;;;;17.13;15.53;;;14.10;99.90;;;;;;5011636;28;20190;-67
2022/05/07 01:08:39;;;;;;;17.43;15.87;;;14.10;99.90;;;;;;5011435;28;20225;-67
2022/05/07 01:11:05;;;;;;;16.77;15.20;;;14.10;99.90;;;;;;5011326;28;20441;-66
2022/05/07 01:13:31;;;;;;;18.50;16.90;;;14.10;99.90;;;;;;5009044;28;20226;-66
2022/05/07 01:15:57;;;;;;;17.97;16.27;;;14.00;99.90;;;;;;5010225;28;20436;-67
2022/05/07 01:18:23;;;;;;;17.60;15.87;;;14.00;99.90;;;;;;5010664;28;20445;-66
2022/05/07 01:20:49;;;;;;;17.27;15.57;;;14.00;99.90;;;;;;5009334;28;20209;-67
2022/05/07 01:23:16;;;;;;;18.40;16.70;;;14.00;99.90;;;;;;5009690;28;20979;-67
2022/05/07 01:25:41;;;;;;;18.40;16.70;;;14.00;99.90;;;;;;5010690;28;20535;-66
2022/05/07 01:28:07;;;;;;;18.80;16.77;;;14.00;99.90;;;;;;5011319;28;20440;-66
2022/05/07 01:30:36;;;;;;;17.13;15.63;;;14.00;99.90;;;;;;5010514;28;20659;-67
2022/05/07 01:33:02;;;;;;;17.30;15.60;;;14.00;99.90;;;;;;5010807;28;20288;-67
2022/05/07 01:35:28;;;;;;;17.70;16.00;;;14.00;99.90;;;;;;5010649;28;20448;-66
2022/05/07 01:37:53;;;;;;;18.80;16.90;;;13.90;99.90;;;;;;5009889;28;20441;-66
2022/05/07 01:40:19;;;;;;;19.43;17.63;;;13.90;99.90;;;;;;5009495;28;21166;-67
2022/05/07 01:42:45;;;;;;;17.90;16.30;;;14.00;99.90;;;;;;5010749;28;20210;-67
2022/05/07 01:45:11;;;;;;;19.83;17.83;;;13.90;99.90;;;;;;5011060;28;20269;-73
2022/05/07 01:50:25;;;;;;;17.63;16.00;;;14.00;99.90;;;;;;5010386;28;20238;-66
2022/05/07 01:52:50;;;;;;;19.77;16.50;;;14.00;99.90;;;;;;5010640;28;20444;-67
2022/05/07 01:55:16;;;;;;;18.60;16.90;;;14.00;99.90;;;;;;5010031;28;20429;-66
2022/05/07 01:57:42;;;;;;;18.43;16.63;;;14.00;99.90;;;;;;5014476;28;20264;-66
2022/05/07 02:00:08;;;;;;;19.47;17.47;;;14.00;99.90;;;;;;5011274;28;20984;-72
2022/05/07 02:02:34;;;;;;;17.57;16.07;;;13.90;99.90;;;;;;5013402;28;20537;-66
2022/05/07 02:05:00;;;;;;;17.77;16.17;;;13.90;99.90;;;;;;5014034;28;20925;-67
2022/05/07 02:07:26;;;;;;;19.20;17.33;;;13.90;99.90;;;;;;5014985;28;20439;-67
2022/05/07 02:09:52;;;;;;;17.87;16.27;;;13.90;99.90;;;;;;5014263;28;20522;-66
2022/05/07 02:12:18;;;;;;;18.43;16.73;;;13.90;99.90;;;;;;5013228;28;20244;-67
2022/05/07 02:14:43;;;;;;;19.57;17.63;;;13.80;99.90;;;;;;5012667;28;20441;-67
2022/05/07 02:17:09;;;;;;;19.70;17.73;;;13.80;99.90;;;;;;5013400;28;20188;-67
2022/05/07 02:19:35;;;;;;;19.83;17.93;;;13.80;99.90;;;;;;5012732;28;20194;-71
2022/05/07 02:22:01;;;;;;;19.33;17.53;;;13.70;99.90;;;;;;5014903;28;20233;-66
2022/05/07 02:24:27;;;;;;;19.00;17.20;;;13.70;99.90;;;;;;5013044;28;20471;-67
2022/05/07 02:26:52;;;;;;;17.60;15.90;;;13.70;99.90;;;;;;5011776;28;20297;-67
2022/05/07 02:29:20;;;;;;;19.60;17.70;;;13.70;99.90;;;;;;5013066;28;20192;-67
2022/05/07 02:32:03;;;;;;;18.13;16.43;;;13.70;99.90;;;;;;5012452;28;20224;-67
2022/05/07 02:34:30;;;;;;;18.33;16.63;;;13.70;99.90;;;;;;5013360;28;20440;-66
2022/05/07 02:36:56;;;;;;;18.67;16.97;;;13.70;99.90;;;;;;5013723;28;20472;-66
2022/05/07 02:39:22;;;;;;;19.20;17.47;;;13.60;99.90;;;;;;5011564;28;20441;-67
2022/05/07 02:44:32;;;;;;;20.33;18.20;;;13.60;99.90;;;;;;5012904;28;20263;-67
2022/05/07 02:46:57;;;;;;;20.00;18.00;;;13.50;99.90;;;;;;5013606;28;20427;-67
2022/05/07 02:49:23;;;;;;;20.47;18.47;;;13.50;99.90;;;;;;5012400;28;20226;-66
2022/05/07 02:51:49;;;;;;;19.43;17.63;;;13.40;99.90;;;;;;5014271;28;20182;-66
2022/05/07 02:54:14;;;;;;;19.07;17.17;;;13.50;99.90;;;;;;5013027;28;20531;-73
2022/05/07 02:56:40;;;;;;;20.87;18.80;;;13.40;99.90;;;;;;5012962;28;20186;-66
2022/05/07 02:59:06;;;;;;;19.23;17.50;;;13.40;99.90;;;;;;5012308;28;20184;-67
2022/05/07 03:01:31;;;;;;;19.13;17.33;;;13.40;99.90;;;;;;5012418;28;20188;-67
2022/05/07 03:03:57;;;;;;;19.03;17.23;;;13.40;99.90;;;;;;5012165;28;20193;-67
2022/05/07 03:06:23;;;;;;;20.67;18.57;;;13.40;99.90;;;;;;5011506;28;20353;-68
2022/05/07 03:08:48;;;;;;;20.40;18.50;;;13.30;99.90;;;;;;5011033;28;20544;-73
2022/05/07 03:11:14;;;;;;;21.47;19.23;;;13.30;99.90;;;;;;5013074;28;20181;-72
2022/05/07 03:13:40;;;;;;;22.03;19.83;;;13.30;99.90;;;;;;5013507;28;20189;-66
2022/05/07 03:16:06;;;;;;;19.93;17.93;;;13.30;99.90;;;;;;5012600;28;20189;-67
2022/05/07 03:18:32;;;;;;;23.10;20.90;;;13.20;99.90;;;;;;5013485;28;20831;-67
2022/05/07 03:21:01;;;;;;;21.57;19.37;;;13.20;99.90;;;;;;5012561;28;20227;-67
2022/05/07 03:23:27;;;;;;;20.97;19.03;;;13.20;99.90;;;;;;5011756;28;20465;-66
2022/05/07 03:25:53;;;;;;;22.43;20.33;;;13.20;99.90;;;;;;5014032;28;20843;-66
2022/05/07 03:28:18;;;;;;;21.63;19.50;;;13.20;99.90;;;;;;5012589;28;21235;-75
2022/05/07 03:30:44;;;;;;;21.60;19.50;;;13.20;99.90;;;;;;4996102;28;20183;-66
2022/05/07 03:33:10;;;;;;;23.00;20.80;;;13.10;99.90;;;;;;5013459;28;20550;-67
2022/05/07 03:35:36;;;;;;;21.33;19.23;;;13.10;99.90;;;;;;5012589;28;20496;-66
2022/05/07 03:38:01;;;;;;;22.80;20.70;;;13.20;99.90;;;;;;5013906;28;20175;-67
2022/05/07 03:40:28;;;;;;;21.60;19.60;;;13.20;99.90;;;;;;5012966;28;20192;-67
2022/05/07 03:42:54;;;;;;;22.23;20.17;;;13.10;99.90;;;;;;5013488;28;20468;-66
2022/05/07 03:45:20;;;;;;;21.90;19.83;;;13.10;99.90;;;;;;5012629;28;20886;-73
2022/05/07 03:47:46;;;;;;;22.57;20.47;;;13.10;99.90;;;;;;5012572;28;20214;-69
2022/05/07 03:50:12;;;;;;;21.47;19.30;;;13.10;99.90;;;;;;5013261;28;20904;-66
2022/05/07 03:55:23;;;;;;;20.80;18.77;;;13.10;99.90;;;;;;5012655;28;20540;-67
2022/05/07 03:57:48;;;;;;;21.90;19.80;;;13.20;99.90;;;;;;5011708;28;20424;-67
2022/05/07 04:00:14;;;;;;;19.70;17.90;;;13.10;99.90;;;;;;5011970;28;20488;-66
2022/05/07 04:02:40;;;;;;;21.77;19.67;;;13.00;99.90;;;;;;5011690;28;20456;-66
2022/05/07 04:05:06;;;;;;;20.67;18.77;;;13.10;99.90;;;;;;5012984;28;20978;-66
2022/05/07 04:07:32;;;;;;;20.70;18.70;;;13.00;99.90;;;;;;5010999;28;20550;-66
2022/05/07 04:09:58;;;;;;;20.20;18.30;;;13.00;99.90;;;;;;5013002;28;20578;-66
2022/05/07 04:12:23;;;;;;;20.30;18.27;;;13.00;99.90;;;;;;5011449;28;20203;-67
2022/05/07 04:14:50;;;;;;;20.03;18.03;;;13.00;99.90;;;;;;5013365;28;20172;-66
2022/05/07 04:17:15;;;;;;;22.00;19.70;;;12.90;99.90;;;;;;5011753;28;20247;-66
2022/05/07 04:19:41;;;;;;;21.73;19.53;;;13.00;99.90;;;;;;5012163;28;20415;-66
2022/05/07 04:22:07;;;;;;;19.90;17.97;;;13.00;99.90;;;;;;5011581;28;20210;-67
2022/05/07 04:24:33;;;;;;;20.37;18.40;;;13.00;99.90;;;;;;5010693;28;20703;-66
2022/05/07 04:27:03;;;;;;;20.40;18.40;;;13.00;99.90;;;;;;5011995;28;20176;-66
2022/05/07 04:29:29;;;;;;;21.90;19.80;;;13.00;99.90;;;;;;5012644;28;20422;-66
2022/05/07 04:31:54;;;;;;;20.27;18.37;;;13.10;99.90;;;;;;5012811;28;20418;-67
2022/05/07 04:34:21;;;;;;;21.37;19.27;;;13.10;99.90;;;;;;5012490;28;20269;-68
2022/05/07 04:36:46;;;;;;;20.77;18.77;;;13.10;99.90;;;;;;5012923;28;20639;-67
2022/05/07 04:39:12;;;;;;;21.23;19.13;;;13.10;99.90;;;;;;5012728;28;20422;-67
2022/05/07 04:41:38;;;;;;;21.83;19.70;;;13.10;99.90;;;;;;5011156;28;20177;-67
2022/05/07 04:44:05;;;;;;;21.90;19.70;;;13.10;99.90;;;;;;5010864;28;20195;-67
2022/05/07 04:46:30;;;;;;;21.37;19.37;;;13.10;99.90;;;;;;5012151;28;20189;-67
2022/05/07 04:48:56;;;;;;;21.77;19.53;;;13.10;99.90;;;;;;5012618;28;20457;-66
2022/05/07 04:51:22;;;;;;;21.87;19.70;;;13.20;99.90;;;;;;5012289;28;20206;-66
2022/05/07 04:53:47;;;;;;;21.20;18.90;;;13.20;99.90;;;;;;5013137;28;20189;-66
2022/05/07 04:56:13;;;;;;;21.80;19.77;;;13.20;99.90;;;;;;5012077;28;20324;-66
2022/05/07 04:58:38;;;;;;;22.57;20.27;;;13.20;99.90;;;;;;5012023;28;20184;-66
2022/05/07 05:01:04;;;;;;;23.07;20.77;;;13.30;99.90;;;;;;5011230;28;20187;-66
2022/05/07 05:03:30;;;;;;;22.33;20.13;;;13.30;99.90;;;;;;5011828;28;20208;-66
2022/05/07 05:05:55;;;;;;;23.53;21.03;;;13.30;99.90;;;;;;5012028;28;20192;-66
2022/05/07 05:08:22;;;;;;;23.13;20.63;;;13.40;99.90;;;;;;5011566;28;20228;-76
2022/05/07 05:10:48;;;;;;;23.73;21.23;;;13.40;99.90;;;;;;5012499;28;20180;-66
2022/05/07 05:13:13;;;;;;;24.10;21.70;;;13.50;99.90;;;;;;4994168;28;20448;-66
2022/05/07 05:15:39;;;;;;;24.10;21.50;;;13.60;99.90;;;;;;5011504;28;20190;-69
2022/05/07 05:18:06;;;;;;;23.60;21.37;;;13.60;99.90;;;;;;5012732;28;20272;-66
2022/05/07 05:20:32;;;;;;;24.00;21.50;;;13.60;99.90;;;;;;5011705;28;20522;-66
2022/05/07 05:22:57;;;;;;;23.43;21.13;;;13.70;99.90;;;;;;5012699;28;20453;-66
2022/05/07 05:25:23;;;;;;;24.67;22.20;;;13.70;99.90;;;;;;5012078;28;20190;-67
2022/05/07 05:27:49;;;;;;;23.83;21.33;;;13.80;99.90;;;;;;5012695;28;20185;-66
2022/05/07 05:30:14;;;;;;;24.87;22.37;;;13.80;99.90;;;;;;5011650;28;20226;-66
2022/05/07 05:32:40;;;;;;;25.23;22.73;;;13.80;99.90;;;;;;5012540;28;20235;-66
2022/05/07 05:35:07;;;;;;;24.20;21.80;;;13.90;99.90;;;;;;5015355;28;20181;-66
2022/05/07 05:37:32;;;;;;;24.27;21.87;;;13.90;99.90;;;;;;5013823;28;20451;-66
2022/05/07 05:39:58;;;;;;;25.83;23.23;;;14.00;99.90;;;;;;5013026;28;22368;-66
2022/05/07 05:42:24;;;;;;;24.00;21.60;;;14.00;99.90;;;;;;5014707;28;20212;-72
2022/05/07 05:44:50;;;;;;;26.77;24.10;;;14.10;99.90;;;;;;5013243;28;20437;-66
2022/05/07 05:47:16;;;;;;;23.70;21.30;;;14.10;99.90;;;;;;5014951;28;20181;-65
2022/05/07 05:49:41;;;;;;;23.50;21.20;;;14.20;99.90;;;;;;5013776;28;20700;-66
2022/05/07 05:52:08;;;;;;;23.87;21.40;;;14.20;99.90;;;;;;5015871;28;20431;-65
2022/05/07 05:54:36;;;;;;;26.50;23.80;;;14.30;99.90;;;;;;5013244;28;20638;-66
2022/05/07 05:57:03;;;;;;;24.63;22.23;;;14.30;99.90;;;;;;5012404;28;20950;-65
2022/05/07 05:59:28;;;;;;;25.40;22.70;;;14.40;99.90;;;;;;5013456;28;20421;-73
2022/05/07 06:01:55;;;;;;;25.63;23.03;;;14.50;99.90;;;;;;5014445;28;20515;-65
2022/05/07 06:04:20;;;;;;;25.77;23.00;;;14.50;99.90;;;;;;5013527;28;20209;-66
2022/05/07 06:06:46;;;;;;;26.27;23.50;;;14.50;99.90;;;;;;5014278;28;21044;-65
2022/05/07 06:09:12;;;;;;;25.73;23.03;;;14.50;99.90;;;;;;5014147;28;20179;-67
2022/05/07 06:11:38;;;;;;;26.73;24.03;;;14.60;99.90;;;;;;5013651;28;20720;-66
2022/05/07 06:14:04;;;;;;;26.97;23.67;;;14.70;99.90;;;;;;5015082;28;20786;-65
2022/05/07 06:16:30;;;;;;;25.20;22.00;;;14.80;99.90;;;;;;5014240;28;20210;-66
2022/05/07 06:18:55;;;;;;;28.20;23.90;;;14.90;99.90;;;;;;5014059;28;20438;-64
2022/05/07 06:21:21;;;;;;;25.07;22.57;;;14.90;99.90;;;;;;5011710;28;20183;-68
2022/05/07 06:23:47;;;;;;;25.97;23.27;;;15.00;99.90;;;;;;5008242;28;20300;-67
2022/05/07 06:28:59;;;;;;;29.43;23.37;;;15.40;99.90;;;;;;5014771;28;20174;-67
2022/05/07 06:31:25;;;;;;;25.63;23.13;;;15.70;99.90;;;;;;5013369;28;20833;-67
2022/05/07 06:33:50;;;;;;;24.77;22.37;;;15.90;99.90;;;;;;5013035;28;20432;-68
2022/05/07 06:36:16;;;;;;;22.70;20.50;;;16.10;99.90;;;;;;5014300;28;20482;-67
2022/05/07 06:38:42;;;;;;;22.40;20.17;;;16.30;99.90;;;;;;5012888;28;20709;-66
2022/05/07 06:41:08;;;;;;;24.67;22.07;;;16.50;99.90;;;;;;5013859;28;20422;-67
2022/05/07 06:43:34;;;;;;;23.80;21.40;;;16.70;99.90;;;;;;5012621;28;20253;-68
2022/05/07 06:46:00;;;;;;;24.43;22.13;;;16.80;99.90;;;;;;5013572;28;20224;-67
2022/05/07 06:48:27;;;;;;;24.60;22.20;;;17.00;99.30;;;;;;5013773;28;20481;-67
2022/05/07 06:50:54;;;;;;;25.33;22.80;;;17.10;99.30;;;;;;5013994;28;20496;-67
2022/05/07 06:53:20;;;;;;;24.47;22.17;;;17.30;99.00;;;;;;5013450;28;20993;-66
2022/05/07 06:55:55;;;;;;;22.47;20.20;;;17.40;98.80;;;;;;5012771;28;20430;-66
2022/05/07 06:58:28;;;;;;;25.27;22.87;;;17.50;98.70;;;;;;5013552;28;20520;-67
2022/05/07 07:00:54;;;;;;;20.03;18.03;;;17.80;99.00;;;;;;5014273;28;20800;-66
2022/05/07 07:03:19;;;;;;;26.00;23.50;;;17.80;98.80;;;;;;5013723;28;20481;-68
2022/05/07 07:05:46;;;;;;;22.33;20.23;;;18.00;99.00;;;;;;5013356;28;20593;-68
2022/05/07 07:08:13;;;;;;;21.83;19.60;;;18.10;98.20;;;;;;5012553;28;20186;-68
2022/05/07 07:10:40;;;;;;;21.17;19.23;;;18.10;95.20;;;;;;5012531;28;20437;-69
2022/05/07 07:13:05;;;;;;;18.20;16.40;;;18.10;95.10;;;;;;5013492;28;20473;-69
2022/05/07 07:15:31;;;;;;;19.07;17.27;;;18.20;95.90;;;;;;5011767;28;20461;-69
2022/05/07 07:17:57;;;;;;;19.67;17.33;;;18.30;96.50;;;;;;5013888;28;20187;-68
2022/05/07 07:20:23;;;;;;;18.77;16.87;;;18.50;96.10;;;;;;5013444;28;20199;-68
2022/05/07 07:22:48;;;;;;;19.40;17.50;;;18.50;95.20;;;;;;5011746;28;20919;-69
2022/05/07 07:25:14;;;;;;;21.00;18.90;;;18.70;95.20;;;;;;5009682;28;20434;-68
2022/05/07 07:27:40;;;;;;;18.80;16.90;;;18.70;94.70;;;;;;5012893;28;20199;-68
2022/05/07 07:30:07;;;;;;;20.70;18.70;;;18.80;94.40;;;;;;5013232;28;20460;-68
2022/05/07 07:32:32;;;;;;;21.63;19.43;;;18.90;94.90;;;;;;5012621;28;20241;-71
2022/05/07 07:34:58;;;;;;;21.50;19.30;;;18.90;94.90;;;;;;5013992;28;20442;-69
2022/05/07 07:37:25;;;;;;;19.80;17.90;;;19.00;93.50;;;;;;5012286;28;20275;-68
2022/05/07 07:39:51;;;;;;;21.47;19.37;;;19.10;93.30;;;;;;5012382;28;20257;-69
2022/05/07 07:42:20;;;;;;;22.70;20.47;;;19.10;93.20;;;;;;5013134;28;20476;-70
2022/05/07 07:47:56;;;;;;;23.33;20.70;;;19.10;92.60;;;;;;5012029;28;20418;-70
2022/05/07 07:50:16;;;;;;;21.80;19.67;;;19.20;94.40;;;;;;5013984;28;20609;-70
2022/05/07 07:52:41;;;;;;;21.13;19.03;;;19.30;95.10;;;;;;5012742;28;20457;-68
2022/05/07 07:55:07;;;;;;;20.83;18.73;;;19.30;94.20;;;;;;5010992;28;20187;-71
2022/05/07 07:57:33;;;;;;;22.00;19.77;;;19.50;94.60;;;;;;4994560;28;20215;-72
2022/05/07 07:59:59;;;;;;;22.63;20.23;;;19.50;94.00;;;;;;5012295;28;20436;-70
2022/05/07 08:02:25;;;;;;;21.07;19.07;;;19.60;94.40;;;;;;5012051;28;21031;-71
2022/05/07 08:04:54;;;;;;;21.40;19.20;;;19.70;94.60;;;;;;5010924;28;20565;-71
2022/05/07 08:12:49;;;;;;;21.40;19.23;;;19.90;94.50;;;;;;5001046;28;20433;-70
2022/05/07 08:15:14;;;;;;;22.03;19.93;;;20.00;94.50;;;;;;5009065;28;21000;-71
2022/05/07 08:17:40;;;;;;;18.50;16.53;;;20.10;93.90;;;;;;5011655;28;20194;-71
2022/05/07 08:20:09;;;;;;;20.77;18.67;;;20.20;94.30;;;;;;5010753;28;20197;-72
2022/05/07 08:22:35;;;;;;;21.53;19.23;;;20.30;94.80;;;;;;5010315;28;20231;-73
2022/05/07 08:25:01;;;;;;;21.70;19.50;;;20.30;92.80;;;;;;5006676;28;20950;-69
2022/05/07 08:27:27;;;;;;;22.80;20.40;;;20.40;92.30;;;;;;5007917;28;20269;-67
2022/05/07 08:29:56;;;;;;;21.57;19.27;;;20.50;92.00;;;;;;5009422;28;20881;-73
2022/05/07 08:32:22;;;;;;;23.27;19.50;;;20.50;91.70;;;;;;5007469;28;20988;-70
2022/05/07 08:34:48;;;;;;;20.10;18.10;;;20.60;91.50;;;;;;5010349;28;20434;-67
2022/05/07 08:37:15;;;;;;;21.27;18.87;;;20.70;92.00;;;;;;5011435;28;20241;-67
2022/05/07 08:39:40;;;;;;;22.60;19.17;;;20.90;92.40;;;;;;5011330;28;20504;-68
2022/05/07 08:42:07;;;;;;;199.30;157.07;;;20.90;92.20;;;;;;5011113;28;20899;-67
2022/05/07 08:44:34;;;;;;;35.67;30.90;;;21.10;92.20;;;;;;5011550;28;20605;-67
2022/05/07 08:47:00;;;;;;;57.57;49.30;;;21.20;92.30;;;;;;5010385;28;20456;-67
2022/05/07 08:49:31;;;;;;;46.30;37.63;;;21.30;91.60;;;;;;5012496;28;20514;-67
2022/05/07 08:51:57;;;;;;;23.60;21.20;;;21.40;89.70;;;;;;5010540;28;20445;-68
2022/05/07 08:54:23;;;;;;;30.37;27.17;;;21.50;90.40;;;;;;5010570;28;20488;-67
2022/05/07 08:56:49;;;;;;;26.73;24.10;;;21.60;90.40;;;;;;5012216;28;20418;-67
2022/05/07 08:59:15;;;;;;;96.97;75.13;;;21.80;89.80;;;;;;5011525;28;20422;-67
2022/05/07 09:01:42;;;;;;;24.83;22.23;;;21.90;90.20;;;;;;5011303;28;20679;-71
2022/05/07 09:04:11;;;;;;;23.27;19.60;;;22.00;86.10;;;;;;4992873;28;20523;-70
2022/05/07 09:06:37;;;;;;;21.47;19.17;;;22.10;87.90;;;;;;4993318;28;20753;-68
2022/05/07 09:09:06;;;;;;;20.90;17.83;;;22.20;86.00;;;;;;5016446;28;20477;-67
2022/05/07 09:11:42;;;;;;;22.23;20.03;;;22.40;84.30;;;;;;5017006;28;20174;-68
2022/05/07 09:14:08;;;;;;;22.43;20.23;;;22.50;85.40;;;;;;5015380;28;20440;-68
2022/05/07 09:16:41;;;;;;;24.73;22.13;;;22.70;86.30;;;;;;5014324;28;20445;-71
2022/05/07 09:19:22;;;;;;;173.93;122.97;;;22.80;87.10;;;;;;5031114;28;20430;-68
2022/05/07 09:21:48;;;;;;;44.87;37.57;;;22.90;87.40;;;;;;5005456;28;20441;-70
2022/05/07 09:24:13;;;;;;;25.60;22.90;;;23.00;83.70;;;;;;5012770;28;20434;-68
2022/05/07 09:26:43;;;;;;;25.37;22.17;;;23.10;84.80;;;;;;5014317;28;20187;-68
2022/05/07 09:29:14;;;;;;;24.97;22.30;;;23.10;83.20;;;;;;5014115;28;20179;-68
2022/05/07 09:31:43;;;;;;;23.97;21.37;;;23.20;83.30;;;;;;5015409;28;20420;-75
2022/05/07 09:36:57;;;;;;;25.30;22.60;;;23.40;80.50;;;;;;5014432;28;21213;-68
2022/05/07 09:39:31;;;;;;;25.17;22.67;;;23.50;79.50;;;;;;5012275;28;20446;-72
2022/05/07 09:41:58;;;;;;;27.83;24.83;;;23.60;78.90;;;;;;5014117;28;20488;-68
2022/05/07 09:44:27;;;;;;;159.73;134.40;;;23.70;79.40;;;;;;5015752;28;20422;-68
2022/05/07 09:46:53;;;;;;;37.10;33.10;;;23.80;80.40;;;;;;5015251;28;20430;-68
2022/05/07 09:49:20;;;;;;;27.20;24.30;;;23.80;76.90;;;;;;4997646;28;20500;-67
2022/05/07 09:51:46;;;;;;;28.23;25.23;;;23.90;78.10;;;;;;5012378;28;20442;-69
2022/05/07 09:59:43;;;;;;;25.37;22.97;;;24.30;79.20;;;;;;5013743;28;20444;-74
2022/05/07 10:02:19;;;;;;;26.00;23.30;;;24.30;77.60;;;;;;5015433;28;20457;-68
2022/05/07 10:05:03;;;;;;;31.17;27.63;;;24.30;77.80;;;;;;5013551;28;20434;-69
2022/05/07 10:07:58;;;;;;;26.37;23.77;;;24.10;79.90;;;;;;5015836;28;20445;-68
2022/05/07 10:10:35;;;;;;;29.90;24.17;;;23.90;77.00;;;;;;5015452;28;20417;-68
2022/05/07 10:13:02;;;;;;;27.20;23.37;;;23.70;77.70;;;;;;5015115;28;20414;-68
2022/05/07 10:15:28;;;;;;;22.47;20.17;;;23.40;79.20;;;;;;5015319;28;20472;-69
2022/05/07 10:17:57;;;;;;;79.63;71.23;;;23.30;76.40;;;;;;5014405;28;20509;-69
2022/05/07 10:20:23;;;;;;;25.97;23.17;;;23.00;79.40;;;;;;5014465;28;20190;-68
2022/05/07 10:22:59;;;;;;;23.67;21.30;;;22.40;81.10;;;;;;5013267;28;20457;-68
2022/05/07 10:25:25;;;;;;;23.67;21.27;;;21.90;80.90;;;;;;5014068;28;20783;-68
2022/05/07 10:27:51;;;;;;;23.10;20.60;;;21.70;80.60;;;;;;5014422;28;20414;-69
2022/05/07 10:30:23;;;;;;;25.57;20.60;;;21.70;82.70;;;;;;5015410;28;20183;-68
2022/05/07 10:32:56;;;;;;;26.63;23.83;;;21.60;82.00;;;;;;5014672;28;20178;-69
2022/05/07 10:35:44;;;;;;;51.03;34.37;;;21.70;82.50;;;;;;5015002;28;20890;-69
2022/05/07 10:38:14;;;;;;;47.43;33.30;;;21.70;83.80;;;;;;4998620;28;20989;-68
2022/05/07 10:40:57;;;;;;;26.07;23.27;;;21.70;83.40;;;;;;5015151;28;20429;-68
2022/05/07 10:43:38;;;;;;;31.47;22.57;;;21.80;83.50;;;;;;5015261;28;20454;-68
2022/05/07 10:46:06;;;;;;;19.87;17.97;;;22.00;82.70;;;;;;5014645;28;20456;-69
2022/05/07 10:48:47;;;;;;;27.93;21.17;;;22.10;82.10;;;;;;5014775;28;20901;-68
2022/05/07 10:51:27;;;;;;;31.23;22.97;;;22.30;81.20;;;;;;5015039;28;20795;-69
2022/05/07 10:53:59;;;;;;;27.30;21.83;;;22.40;80.90;;;;;;5012870;28;20790;-68
2022/05/07 10:56:25;;;;;;;24.87;21.13;;;22.50;80.10;;;;;;5014855;28;20874;-68
2022/05/07 10:58:53;;;;;;;39.50;34.47;;;22.70;82.00;;;;;;5014237;28;20407;-68
2022/05/07 11:01:21;;;;;;;201.90;165.53;;;22.70;80.20;;;;;;5013417;28;20830;-68
2022/05/07 11:03:48;;;;;;;101.82;87.50;;;22.60;78.10;;;;;;5013573;28;20442;-69
2022/05/07 11:06:14;;;;;;;34.87;31.23;;;22.50;79.10;;;;;;5014600;28;20190;-68
2022/05/07 11:08:52;;;;;;;26.77;23.80;;;22.40;79.30;;;;;;5014652;28;20453;-69
2022/05/07 11:11:19;;;;;;;26.20;23.50;;;22.30;79.00;;;;;;5014531;28;20410;-68
2022/05/07 11:13:45;;;;;;;23.90;21.30;;;22.30;78.80;;;;;;5013830;28;20422;-69
2022/05/07 11:16:11;;;;;;;25.30;22.80;;;22.30;79.00;;;;;;5014432;28;20477;-68
2022/05/07 11:18:40;;;;;;;24.90;22.40;;;22.40;79.50;;;;;;5014338;28;20918;-68
2022/05/07 11:21:06;;;;;;;26.37;21.40;;;22.50;78.70;;;;;;5013761;28;20418;-68
2022/05/07 11:23:36;;;;;;;23.83;21.27;;;22.40;76.90;;;;;;5014239;28;20458;-68
2022/05/07 11:26:17;;;;;;;20.30;18.23;;;22.20;77.20;;;;;;5013706;28;20500;-68
2022/05/07 11:28:45;;;;;;;24.33;20.93;;;21.60;76.80;;;;;;5013846;28;20956;-69
2022/05/07 11:31:12;;;;;;;31.00;24.63;;;21.20;78.50;;;;;;5013104;28;20418;-68
2022/05/07 11:33:38;;;;;;;27.40;24.50;;;20.80;82.00;;;;;;4995991;28;20480;-68
2022/05/07 11:36:09;;;;;;;29.00;24.67;;;20.70;85.60;;;;;;5013295;28;20409;-68
2022/05/07 11:38:36;;;;;;;28.00;23.90;;;20.70;88.00;;;;;;5014497;28;20488;-70
2022/05/07 11:41:14;;;;;;;26.77;23.87;;;20.70;88.30;;;;;;5013464;28;20414;-68
2022/05/07 11:46:24;;;;;;;26.83;24.13;;;20.90;90.00;;;;;;5013663;28;20768;-68
2022/05/07 11:48:50;;;;;;;28.10;25.20;;;20.90;89.80;;;;;;5013065;28;20450;-69
2022/05/07 11:51:24;;;;;;;30.07;26.83;;;21.00;90.00;;;;;;5013852;28;20417;-69
2022/05/07 11:53:50;;;;;;;26.50;23.80;;;21.10;90.70;;;;;;5013529;28;20417;-68
2022/05/07 11:56:15;;;;;;;26.97;24.17;;;21.20;90.40;;;;;;5013798;28;20410;-68
2022/05/07 11:58:43;;;;;;;73.37;61.17;;;21.20;90.00;;;;;;5013590;28;20210;-68
2022/05/07 12:01:23;;;;;;;51.93;43.03;;;21.20;90.70;;;;;;5011882;28;20183;-68
2022/05/07 12:03:52;;;;;;;39.23;35.00;;;21.20;91.30;;;;;;5012695;28;20880;-70
2022/05/07 12:06:25;;;;;;;30.17;26.93;;;21.20;92.90;;;;;;5013534;28;20465;-69
2022/05/07 12:08:51;;;;;;;31.20;28.00;;;21.10;91.70;;;;;;4995268;28;20433;-69
2022/05/07 12:11:17;;;;;;;31.17;27.87;;;20.80;91.70;;;;;;5012403;28;20421;-69
2022/05/07 12:13:45;;;;;;;28.77;25.67;;;20.60;92.50;;;;;;5013459;28;20453;-69
2022/05/07 12:18:56;;;;;;;31.90;27.53;;;20.20;92.90;;;;;;5012718;28;20411;-68
2022/05/07 12:29:48;;;;;;;35.80;31.40;;;20.10;94.10;;;;;;5013336;28;20410;-68
2022/05/07 12:29:49;;;;;;;91.50;69.43;;;19.80;94.20;;;;;;5013211;28;20747;-68
2022/05/07 12:32:15;;;;;;;36.37;32.10;;;19.60;93.80;;;;;;5012129;28;20902;-68
2022/05/07 12:34:40;;;;;;;29.30;26.10;;;19.60;94.80;;;;;;5013081;28;20414;-68
2022/05/07 12:37:06;;;;;;;28.73;25.27;;;19.50;95.50;;;;;;5012280;28;20834;-68
2022/05/07 12:39:32;;;;;;;28.10;25.20;;;19.60;94.10;;;;;;5013095;28;20175;-68
2022/05/07 12:42:08;;;;;;;26.63;23.43;;;19.80;95.70;;;;;;5011463;28;20206;-68
2022/05/07 12:44:34;;;;;;;22.53;20.33;;;19.90;95.50;;;;;;5012713;28;20213;-68
2022/05/07 12:47:00;;;;;;;25.30;22.50;;;20.10;95.30;;;;;;5012386;28;20424;-68
2022/05/07 12:49:27;;;;;;;24.23;21.77;;;20.20;93.90;;;;;;5012856;28;20462;-68
2022/05/07 12:51:53;;;;;;;25.80;23.10;;;20.20;94.50;;;;;;5012359;28;20782;-68
2022/05/07 12:54:19;;;;;;;26.07;23.20;;;20.10;94.50;;;;;;5012966;28;20480;-68
2022/05/07 12:56:46;;;;;;;25.87;23.37;;;19.90;92.80;;;;;;5012932;28;20473;-68
2022/05/07 12:59:12;;;;;;;24.47;22.00;;;19.80;93.10;;;;;;5012205;28;20414;-68
2022/05/07 13:01:40;;;;;;;26.03;23.43;;;19.70;94.30;;;;;;5012956;28;20414;-68
2022/05/07 13:04:07;;;;;;;27.73;24.93;;;19.70;95.40;;;;;;5012158;28;20432;-68
2022/05/07 13:06:32;;;;;;;26.80;24.10;;;19.70;97.10;;;;;;5011437;28;20418;-68
2022/05/07 13:09:00;;;;;;;27.60;24.77;;;19.60;97.70;;;;;;5012113;28;20766;-68